Decoded Metar for SVBM (BARQUISIMETO in VENEZUELA) (IATA:BRM) | Meteo·Mobile Aviation Weather
aviador You're here:

SVBM Decoded Metar

BARQUISIMETO in VENEZUELA
Report Time2018-12-11 03:01:00
UTC Time2018-12-11 03:25:09
Flight Rules vfr VFR
Wind090° at 02 kt
W.Decomp.*RWY 09: 2.0 kt HW 0.3 kt RCW
W.Rank090° ranks 2
Current wind is below 090° avg. (7.3)
Visibility9999 m
Phenomena:N/A
Clouds:Few 016 Hf
Expected CloudBase > 1,600 ft AGL from Temp-Dew spread
CeilingNone
Temp22°C (ISA +11)
Dew Point18°C (78% RH)
QNH1018 hPa
Density Alt3,406 ft
Elevation2,014 ft
Report Wrong Elevation
Raw Report
METAR SVBM 110301Z 09002KT 9999 FEW016 22/18 Q1018=

Extra information for SVBM:More info

Metar Taf Metar & Taf Last 4 Metars F.Rules Stats Wind Profile Meteogram Temp Stats Airport Information Weather charts Add Link Nearby VenuesMetar ALERT Operation Metar Decoded Social comments